Flight Information

DEPARTURE
EL PASO, TX
Elevation:
3961
Runways:
4/22 - 12020x150 - ASPH-CONC-F
8L/26R - 5499x75 - CONC-G
8R/26L - 9025x150 - ASPH-CONC-F
Active PE Departure:
22 - 26L - 26R
Current PE ATIS:
C
Altimeter:
29.78
Remarks:
R N P APPROACHES AVAILABLE UPON REQUEST.
ATIS:
120.0 915-772-9412
Clearance Delivery:
125
Ground:
121.9
Tower:
EL PASO TOWER 118.3
DESTINATION
,
Elevation:
TPA:
1000 (est.)


6231.6 NM81° True-11° Var70° HDG

Flight Plan:
(click to file on line)

1. Type
2. Aircraft Identification
3. Aircraft Type / Special Equipment
4. True Airspeed
kts
5. Departure Airport
(ICAO code)
6. Arriving Airport
(ICAO code)
7. Cruising Altitude
ft
8. Alternate Airport
(ICAO code)
9. Route of Flight
10. Remarks


00:00:00 Departure ATIS: Destination ATIS:

Clearance Limit:
Route:
Altitude: Expect in minutes
Frequency:
Transponder: (7500 Hijack / 7600 Lost Comms / 7700 Emergency)


KELP 110251Z 29012G20KT 10SM FEW250 27/M14 A2978 RMK AO2 PK WND 28026/0220 SLP024 T02671139 53005
Time: 2021-04-11T02:51:00Z
1618111665
Winds: 290 @ 12 kts
Gusting:20 kts
Visibility: 10.0 sm
Clouds (AGL): FEW 25000
Temperature: 26.7 C
Dew Point: -13.9 C
Pressure: 29.778543 in Hgbr


Notes:

Data extracted from FAA Digital Chart Supplement. Effective: 0901Z Thursday, Feb 25, 2021 to 0901Z Thursday, APR 22, 2021
Current ATIS data is provided courtisy of PilotEdge.